sensor_id;sensor_type;location;lat;lon;timestamp;P1;durP1;ratioP1;P2;durP2;ratioP2
9880;SDS011;4979;51.014;6.678;2023-05-20T00:02:10;2.72;;;2.03;;
9880;SDS011;4979;51.014;6.678;2023-05-20T00:04:36;2.25;;;1.70;;
9880;SDS011;4979;51.014;6.678;2023-05-20T00:07:01;2.35;;;1.90;;
9880;SDS011;4979;51.014;6.678;2023-05-20T00:09:28;3.53;;;1.88;;
9880;SDS011;4979;51.014;6.678;2023-05-20T00:11:54;3.45;;;2.13;;
9880;SDS011;4979;51.014;6.678;2023-05-20T00:14:19;2.88;;;1.95;;
9880;SDS011;4979;51.014;6.678;2023-05-20T00:16:45;3.58;;;1.85;;
9880;SDS011;4979;51.014;6.678;2023-05-20T00:19:11;4.38;;;1.88;;
9880;SDS011;4979;51.014;6.678;2023-05-20T00:21:37;2.50;;;2.05;;
9880;SDS011;4979;51.014;6.678;2023-05-20T00:24:02;3.75;;;2.10;;
9880;SDS011;4979;51.014;6.678;2023-05-20T00:26:28;2.42;;;2.00;;
9880;SDS011;4979;51.014;6.678;2023-05-20T00:28:54;2.55;;;1.92;;
9880;SDS011;4979;51.014;6.678;2023-05-20T00:31:19;3.72;;;2.42;;
9880;SDS011;4979;51.014;6.678;2023-05-20T00:33:45;2.90;;;2.20;;
9880;SDS011;4979;51.014;6.678;2023-05-20T00:36:11;2.55;;;2.15;;
9880;SDS011;4979;51.014;6.678;2023-05-20T00:38:36;3.45;;;1.70;;
9880;SDS011;4979;51.014;6.678;2023-05-20T00:41:02;3.72;;;2.10;;
9880;SDS011;4979;51.014;6.678;2023-05-20T00:43:27;2.65;;;1.83;;
9880;SDS011;4979;51.014;6.678;2023-05-20T00:45:53;5.13;;;2.08;;
9880;SDS011;4979;51.014;6.678;2023-05-20T00:48:19;3.95;;;1.95;;
9880;SDS011;4979;51.014;6.678;2023-05-20T00:50:46;3.80;;;2.00;;
9880;SDS011;4979;51.014;6.678;2023-05-20T00:53:13;2.70;;;2.42;;
9880;SDS011;4979;51.014;6.678;2023-05-20T00:55:41;2.67;;;1.80;;
9880;SDS011;4979;51.014;6.678;2023-05-20T00:58:06;2.83;;;2.25;;
9880;SDS011;4979;51.014;6.678;2023-05-20T01:00:32;4.53;;;2.30;;
9880;SDS011;4979;51.014;6.678;2023-05-20T01:02:58;2.75;;;2.20;;
9880;SDS011;4979;51.014;6.678;2023-05-20T01:05:25;3.60;;;1.90;;
9880;SDS011;4979;51.014;6.678;2023-05-20T01:07:50;4.63;;;2.38;;
9880;SDS011;4979;51.014;6.678;2023-05-20T01:10:16;3.60;;;2.10;;
9880;SDS011;4979;51.014;6.678;2023-05-20T01:12:45;4.90;;;2.15;;
9880;SDS011;4979;51.014;6.678;2023-05-20T01:15:17;4.45;;;2.03;;
9880;SDS011;4979;51.014;6.678;2023-05-20T01:17:45;3.08;;;2.03;;
9880;SDS011;4979;51.014;6.678;2023-05-20T01:20:12;2.58;;;2.15;;
9880;SDS011;4979;51.014;6.678;2023-05-20T01:22:45;2.40;;;2.15;;
9880;SDS011;4979;51.014;6.678;2023-05-20T01:25:11;3.42;;;2.33;;
9880;SDS011;4979;51.014;6.678;2023-05-20T01:27:37;2.30;;;2.10;;
9880;SDS011;4979;51.014;6.678;2023-05-20T01:30:03;4.45;;;2.33;;
9880;SDS011;4979;51.014;6.678;2023-05-20T01:32:36;5.30;;;2.15;;
9880;SDS011;4979;51.014;6.678;2023-05-20T01:35:05;4.07;;;2.20;;
9880;SDS011;4979;51.014;6.678;2023-05-20T01:37:31;2.65;;;2.28;;
9880;SDS011;4979;51.014;6.678;2023-05-20T01:40:02;3.63;;;2.22;;
9880;SDS011;4979;51.014;6.678;2023-05-20T01:42:29;2.22;;;2.03;;
9880;SDS011;4979;51.014;6.678;2023-05-20T01:44:55;2.42;;;2.22;;
9880;SDS011;4979;51.014;6.678;2023-05-20T01:47:21;4.13;;;2.20;;
9880;SDS011;4979;51.014;6.678;2023-05-20T01:49:46;2.97;;;2.10;;
9880;SDS011;4979;51.014;6.678;2023-05-20T01:52:13;3.50;;;2.20;;
9880;SDS011;4979;51.014;6.678;2023-05-20T01:54:39;6.03;;;2.20;;
9880;SDS011;4979;51.014;6.678;2023-05-20T01:57:05;3.47;;;2.05;;
9880;SDS011;4979;51.014;6.678;2023-05-20T01:59:30;3.15;;;2.20;;
9880;SDS011;4979;51.014;6.678;2023-05-20T02:01:56;3.63;;;2.10;;
9880;SDS011;4979;51.014;6.678;2023-05-20T02:04:22;4.43;;;2.20;;
9880;SDS011;4979;51.014;6.678;2023-05-20T02:06:48;3.13;;;2.40;;
9880;SDS011;4979;51.014;6.678;2023-05-20T02:09:14;6.85;;;2.65;;
9880;SDS011;4979;51.014;6.678;2023-05-20T02:11:39;3.13;;;2.20;;
9880;SDS011;4979;51.014;6.678;2023-05-20T02:14:05;3.05;;;2.50;;
9880;SDS011;4979;51.014;6.678;2023-05-20T02:16:31;2.97;;;2.55;;
9880;SDS011;4979;51.014;6.678;2023-05-20T02:18:56;4.32;;;2.78;;
9880;SDS011;4979;51.014;6.678;2023-05-20T02:21:23;3.65;;;2.00;;
9880;SDS011;4979;51.014;6.678;2023-05-20T02:23:49;3.05;;;2.30;;
9880;SDS011;4979;51.014;6.678;2023-05-20T02:26:15;4.75;;;2.30;;
9880;SDS011;4979;51.014;6.678;2023-05-20T02:28:41;3.75;;;2.15;;
9880;SDS011;4979;51.014;6.678;2023-05-20T02:31:10;4.28;;;2.35;;
9880;SDS011;4979;51.014;6.678;2023-05-20T02:33:39;3.38;;;2.45;;
9880;SDS011;4979;51.014;6.678;2023-05-20T02:36:04;4.70;;;2.45;;
9880;SDS011;4979;51.014;6.678;2023-05-20T02:38:30;4.82;;;2.20;;
9880;SDS011;4979;51.014;6.678;2023-05-20T02:40:56;3.53;;;2.33;;
9880;SDS011;4979;51.014;6.678;2023-05-20T02:43:23;3.92;;;2.72;;
9880;SDS011;4979;51.014;6.678;2023-05-20T02:45:49;4.10;;;2.60;;
9880;SDS011;4979;51.014;6.678;2023-05-20T02:48:14;5.28;;;2.70;;
9880;SDS011;4979;51.014;6.678;2023-05-20T02:50:40;5.47;;;2.92;;
9880;SDS011;4979;51.014;6.678;2023-05-20T02:53:06;3.40;;;2.35;;
9880;SDS011;4979;51.014;6.678;2023-05-20T02:55:33;4.45;;;2.30;;
9880;SDS011;4979;51.014;6.678;2023-05-20T02:57:59;5.07;;;2.20;;
9880;SDS011;4979;51.014;6.678;2023-05-20T03:00:25;3.42;;;2.75;;
9880;SDS011;4979;51.014;6.678;2023-05-20T03:02:54;3.78;;;2.97;;
9880;SDS011;4979;51.014;6.678;2023-05-20T03:05:20;3.20;;;2.80;;
9880;SDS011;4979;51.014;6.678;2023-05-20T03:07:46;5.63;;;2.80;;
9880;SDS011;4979;51.014;6.678;2023-05-20T03:10:12;6.22;;;2.60;;
9880;SDS011;4979;51.014;6.678;2023-05-20T03:12:38;3.38;;;2.33;;
9880;SDS011;4979;51.014;6.678;2023-05-20T03:15:04;3.13;;;2.38;;
9880;SDS011;4979;51.014;6.678;2023-05-20T03:17:30;4.85;;;3.13;;
9880;SDS011;4979;51.014;6.678;2023-05-20T03:19:56;5.82;;;2.85;;
9880;SDS011;4979;51.014;6.678;2023-05-20T03:22:22;7.43;;;3.08;;
9880;SDS011;4979;51.014;6.678;2023-05-20T03:24:47;4.30;;;2.80;;
9880;SDS011;4979;51.014;6.678;2023-05-20T03:27:13;6.70;;;2.70;;
9880;SDS011;4979;51.014;6.678;2023-05-20T03:29:38;3.72;;;2.47;;
9880;SDS011;4979;51.014;6.678;2023-05-20T03:32:05;5.18;;;2.58;;
9880;SDS011;4979;51.014;6.678;2023-05-20T03:34:31;5.15;;;2.75;;
9880;SDS011;4979;51.014;6.678;2023-05-20T03:36:56;6.78;;;2.70;;
9880;SDS011;4979;51.014;6.678;2023-05-20T03:39:24;5.07;;;3.15;;
9880;SDS011;4979;51.014;6.678;2023-05-20T03:41:50;4.38;;;3.08;;
9880;SDS011;4979;51.014;6.678;2023-05-20T03:44:15;4.95;;;2.83;;
9880;SDS011;4979;51.014;6.678;2023-05-20T03:46:41;4.50;;;3.00;;
9880;SDS011;4979;51.014;6.678;2023-05-20T03:49:06;9.98;;;3.10;;
9880;SDS011;4979;51.014;6.678;2023-05-20T03:51:32;4.05;;;2.70;;
9880;SDS011;4979;51.014;6.678;2023-05-20T03:53:58;5.35;;;3.25;;
9880;SDS011;4979;51.014;6.678;2023-05-20T03:56:23;7.03;;;3.10;;
9880;SDS011;4979;51.014;6.678;2023-05-20T03:58:50;3.83;;;2.67;;
9880;SDS011;4979;51.014;6.678;2023-05-20T04:01:16;6.53;;;2.70;;
9880;SDS011;4979;51.014;6.678;2023-05-20T04:03:42;4.13;;;3.03;;
9880;SDS011;4979;51.014;6.678;2023-05-20T04:06:07;3.45;;;2.72;;
9880;SDS011;4979;51.014;6.678;2023-05-20T04:08:33;4.65;;;3.25;;
9880;SDS011;4979;51.014;6.678;2023-05-20T04:11:00;7.00;;;3.38;;
9880;SDS011;4979;51.014;6.678;2023-05-20T04:13:26;4.90;;;3.20;;
9880;SDS011;4979;51.014;6.678;2023-05-20T04:15:52;7.95;;;3.50;;
9880;SDS011;4979;51.014;6.678;2023-05-20T04:18:18;5.43;;;3.20;;
9880;SDS011;4979;51.014;6.678;2023-05-20T04:20:44;4.63;;;3.10;;
9880;SDS011;4979;51.014;6.678;2023-05-20T04:23:11;4.47;;;3.10;;
9880;SDS011;4979;51.014;6.678;2023-05-20T04:25:37;4.25;;;2.70;;
9880;SDS011;4979;51.014;6.678;2023-05-20T04:28:05;4.75;;;3.30;;
9880;SDS011;4979;51.014;6.678;2023-05-20T04:30:30;3.45;;;2.80;;
9880;SDS011;4979;51.014;6.678;2023-05-20T04:32:57;5.18;;;3.13;;
9880;SDS011;4979;51.014;6.678;2023-05-20T04:35:23;6.63;;;3.40;;
9880;SDS011;4979;51.014;6.678;2023-05-20T04:37:50;4.85;;;3.05;;
9880;SDS011;4979;51.014;6.678;2023-05-20T04:40:18;3.28;;;2.85;;
9880;SDS011;4979;51.014;6.678;2023-05-20T04:42:43;6.32;;;2.63;;
9880;SDS011;4979;51.014;6.678;2023-05-20T04:45:09;5.47;;;2.90;;
9880;SDS011;4979;51.014;6.678;2023-05-20T04:47:36;4.75;;;2.75;;
9880;SDS011;4979;51.014;6.678;2023-05-20T04:50:04;4.55;;;2.95;;
9880;SDS011;4979;51.014;6.678;2023-05-20T04:52:32;3.55;;;2.85;;
9880;SDS011;4979;51.014;6.678;2023-05-20T04:54:58;5.32;;;2.88;;
9880;SDS011;4979;51.014;6.678;2023-05-20T04:57:25;4.80;;;2.92;;
9880;SDS011;4979;51.014;6.678;2023-05-20T04:59:51;3.78;;;2.83;;
9880;SDS011;4979;51.014;6.678;2023-05-20T05:02:16;5.47;;;3.17;;
9880;SDS011;4979;51.014;6.678;2023-05-20T05:04:42;8.10;;;3.15;;
9880;SDS011;4979;51.014;6.678;2023-05-20T05:07:08;5.40;;;2.85;;
9880;SDS011;4979;51.014;6.678;2023-05-20T05:09:33;3.75;;;2.80;;
9880;SDS011;4979;51.014;6.678;2023-05-20T05:12:00;5.32;;;2.92;;
9880;SDS011;4979;51.014;6.678;2023-05-20T05:14:26;4.65;;;2.97;;
9880;SDS011;4979;51.014;6.678;2023-05-20T05:16:52;4.93;;;2.80;;
9880;SDS011;4979;51.014;6.678;2023-05-20T05:19:18;3.92;;;3.13;;
9880;SDS011;4979;51.014;6.678;2023-05-20T05:21:43;6.40;;;3.13;;
9880;SDS011;4979;51.014;6.678;2023-05-20T05:24:09;3.55;;;2.70;;
9880;SDS011;4979;51.014;6.678;2023-05-20T05:26:34;6.05;;;2.80;;
9880;SDS011;4979;51.014;6.678;2023-05-20T05:29:00;3.75;;;2.42;;
9880;SDS011;4979;51.014;6.678;2023-05-20T05:31:26;5.95;;;3.33;;
9880;SDS011;4979;51.014;6.678;2023-05-20T05:33:52;2.70;;;2.35;;
9880;SDS011;4979;51.014;6.678;2023-05-20T05:36:17;4.40;;;2.70;;
9880;SDS011;4979;51.014;6.678;2023-05-20T05:38:43;4.43;;;2.75;;
9880;SDS011;4979;51.014;6.678;2023-05-20T05:41:09;4.10;;;2.47;;
9880;SDS011;4979;51.014;6.678;2023-05-20T05:43:35;7.57;;;2.80;;
9880;SDS011;4979;51.014;6.678;2023-05-20T05:46:00;5.22;;;3.08;;
9880;SDS011;4979;51.014;6.678;2023-05-20T05:48:26;6.05;;;2.88;;
9880;SDS011;4979;51.014;6.678;2023-05-20T05:50:52;5.65;;;2.80;;
9880;SDS011;4979;51.014;6.678;2023-05-20T05:53:18;4.53;;;2.80;;
9880;SDS011;4979;51.014;6.678;2023-05-20T05:55:47;6.05;;;2.65;;
9880;SDS011;4979;51.014;6.678;2023-05-20T05:58:13;5.07;;;2.92;;
9880;SDS011;4979;51.014;6.678;2023-05-20T06:00:38;5.25;;;2.80;;
9880;SDS011;4979;51.014;6.678;2023-05-20T06:03:04;3.60;;;2.65;;
9880;SDS011;4979;51.014;6.678;2023-05-20T06:05:30;4.90;;;2.53;;
9880;SDS011;4979;51.014;6.678;2023-05-20T06:07:56;2.92;;;2.58;;
9880;SDS011;4979;51.014;6.678;2023-05-20T06:10:22;5.65;;;2.63;;
9880;SDS011;4979;51.014;6.678;2023-05-20T06:12:47;3.83;;;2.70;;
9880;SDS011;4979;51.014;6.678;2023-05-20T06:15:13;5.70;;;2.92;;
9880;SDS011;4979;51.014;6.678;2023-05-20T06:17:39;5.13;;;2.53;;
9880;SDS011;4979;51.014;6.678;2023-05-20T06:20:05;4.43;;;2.60;;
9880;SDS011;4979;51.014;6.678;2023-05-20T06:22:31;4.43;;;3.00;;
9880;SDS011;4979;51.014;6.678;2023-05-20T06:24:57;5.78;;;2.58;;
9880;SDS011;4979;51.014;6.678;2023-05-20T06:27:24;3.25;;;2.50;;
9880;SDS011;4979;51.014;6.678;2023-05-20T06:29:51;2.80;;;2.50;;
9880;SDS011;4979;51.014;6.678;2023-05-20T06:32:16;4.75;;;2.30;;
9880;SDS011;4979;51.014;6.678;2023-05-20T06:34:42;4.25;;;2.67;;
9880;SDS011;4979;51.014;6.678;2023-05-20T06:37:08;4.68;;;2.50;;
9880;SDS011;4979;51.014;6.678;2023-05-20T06:39:33;9.07;;;3.00;;
9880;SDS011;4979;51.014;6.678;2023-05-20T06:41:59;5.18;;;2.67;;
9880;SDS011;4979;51.014;6.678;2023-05-20T06:44:25;5.10;;;2.47;;
9880;SDS011;4979;51.014;6.678;2023-05-20T06:46:51;3.45;;;2.50;;
9880;SDS011;4979;51.014;6.678;2023-05-20T06:49:16;3.88;;;2.72;;
9880;SDS011;4979;51.014;6.678;2023-05-20T06:51:42;5.10;;;2.75;;
9880;SDS011;4979;51.014;6.678;2023-05-20T06:54:08;2.70;;;2.50;;
9880;SDS011;4979;51.014;6.678;2023-05-20T06:56:34;3.95;;;2.92;;
9880;SDS011;4979;51.014;6.678;2023-05-20T06:59:00;3.30;;;3.00;;
9880;SDS011;4979;51.014;6.678;2023-05-20T07:01:26;3.25;;;2.30;;
9880;SDS011;4979;51.014;6.678;2023-05-20T07:03:52;3.50;;;2.47;;
9880;SDS011;4979;51.014;6.678;2023-05-20T07:06:18;5.82;;;3.63;;
9880;SDS011;4979;51.014;6.678;2023-05-20T07:08:43;3.17;;;2.80;;
9880;SDS011;4979;51.014;6.678;2023-05-20T07:11:09;4.63;;;2.42;;
9880;SDS011;4979;51.014;6.678;2023-05-20T07:13:36;3.03;;;2.65;;
9880;SDS011;4979;51.014;6.678;2023-05-20T07:16:02;4.50;;;2.55;;
9880;SDS011;4979;51.014;6.678;2023-05-20T07:18:28;4.18;;;2.63;;
9880;SDS011;4979;51.014;6.678;2023-05-20T07:20:55;2.47;;;2.20;;
9880;SDS011;4979;51.014;6.678;2023-05-20T07:23:22;3.53;;;2.58;;
9880;SDS011;4979;51.014;6.678;2023-05-20T07:25:48;2.53;;;2.25;;
9880;SDS011;4979;51.014;6.678;2023-05-20T07:28:14;4.40;;;2.20;;
9880;SDS011;4979;51.014;6.678;2023-05-20T07:30:41;3.85;;;2.72;;
9880;SDS011;4979;51.014;6.678;2023-05-20T07:33:13;2.95;;;2.60;;
9880;SDS011;4979;51.014;6.678;2023-05-20T07:35:40;6.50;;;3.35;;
9880;SDS011;4979;51.014;6.678;2023-05-20T07:38:07;2.95;;;2.08;;
9880;SDS011;4979;51.014;6.678;2023-05-20T07:40:33;3.08;;;2.78;;
9880;SDS011;4979;51.014;6.678;2023-05-20T07:43:00;8.43;;;2.90;;
9880;SDS011;4979;51.014;6.678;2023-05-20T07:45:27;4.80;;;2.90;;
9880;SDS011;4979;51.014;6.678;2023-05-20T07:47:53;3.15;;;2.67;;
9880;SDS011;4979;51.014;6.678;2023-05-20T07:50:18;4.28;;;2.53;;
9880;SDS011;4979;51.014;6.678;2023-05-20T07:52:45;5.47;;;2.55;;
9880;SDS011;4979;51.014;6.678;2023-05-20T07:55:10;3.22;;;2.92;;
9880;SDS011;4979;51.014;6.678;2023-05-20T07:57:36;3.90;;;2.80;;
9880;SDS011;4979;51.014;6.678;2023-05-20T08:00:02;4.95;;;3.08;;
9880;SDS011;4979;51.014;6.678;2023-05-20T08:02:28;2.97;;;2.67;;
9880;SDS011;4979;51.014;6.678;2023-05-20T08:04:54;4.82;;;2.80;;
9880;SDS011;4979;51.014;6.678;2023-05-20T08:07:19;4.18;;;2.83;;
9880;SDS011;4979;51.014;6.678;2023-05-20T08:09:45;4.40;;;2.58;;
9880;SDS011;4979;51.014;6.678;2023-05-20T08:12:10;4.30;;;3.08;;
9880;SDS011;4979;51.014;6.678;2023-05-20T08:14:36;5.82;;;2.90;;
9880;SDS011;4979;51.014;6.678;2023-05-20T08:17:01;6.20;;;2.92;;
9880;SDS011;4979;51.014;6.678;2023-05-20T08:19:27;8.48;;;2.95;;
9880;SDS011;4979;51.014;6.678;2023-05-20T08:21:53;5.57;;;2.53;;
9880;SDS011;4979;51.014;6.678;2023-05-20T08:24:18;5.03;;;3.10;;
9880;SDS011;4979;51.014;6.678;2023-05-20T08:26:45;5.60;;;3.10;;
9880;SDS011;4979;51.014;6.678;2023-05-20T08:29:10;4.82;;;3.22;;
9880;SDS011;4979;51.014;6.678;2023-05-20T08:31:36;4.47;;;2.88;;
9880;SDS011;4979;51.014;6.678;2023-05-20T08:34:02;4.32;;;2.55;;
9880;SDS011;4979;51.014;6.678;2023-05-20T08:36:27;4.38;;;2.92;;
9880;SDS011;4979;51.014;6.678;2023-05-20T08:38:53;3.13;;;2.83;;
9880;SDS011;4979;51.014;6.678;2023-05-20T08:41:19;4.35;;;2.58;;
9880;SDS011;4979;51.014;6.678;2023-05-20T08:43:46;4.07;;;3.10;;
9880;SDS011;4979;51.014;6.678;2023-05-20T08:46:14;4.75;;;2.70;;
9880;SDS011;4979;51.014;6.678;2023-05-20T08:48:40;3.72;;;3.40;;
9880;SDS011;4979;51.014;6.678;2023-05-20T08:51:05;4.03;;;2.90;;
9880;SDS011;4979;51.014;6.678;2023-05-20T08:53:35;3.17;;;2.67;;
9880;SDS011;4979;51.014;6.678;2023-05-20T08:56:01;4.00;;;2.97;;
9880;SDS011;4979;51.014;6.678;2023-05-20T08:58:27;4.35;;;2.55;;
9880;SDS011;4979;51.014;6.678;2023-05-20T09:00:56;5.43;;;2.80;;
9880;SDS011;4979;51.014;6.678;2023-05-20T09:03:26;4.65;;;3.20;;
9880;SDS011;4979;51.014;6.678;2023-05-20T09:05:52;3.78;;;2.97;;
9880;SDS011;4979;51.014;6.678;2023-05-20T09:08:27;4.55;;;2.83;;
9880;SDS011;4979;51.014;6.678;2023-05-20T09:10:54;6.05;;;3.25;;
9880;SDS011;4979;51.014;6.678;2023-05-20T09:13:20;3.85;;;2.90;;
9880;SDS011;4979;51.014;6.678;2023-05-20T09:15:47;2.55;;;2.35;;
9880;SDS011;4979;51.014;6.678;2023-05-20T09:18:13;7.32;;;2.92;;
9880;SDS011;4979;51.014;6.678;2023-05-20T09:20:38;3.40;;;3.10;;
9880;SDS011;4979;51.014;6.678;2023-05-20T09:23:05;3.47;;;2.88;;
9880;SDS011;4979;51.014;6.678;2023-05-20T09:25:32;6.80;;;3.45;;
9880;SDS011;4979;51.014;6.678;2023-05-20T09:27:59;4.30;;;3.42;;
9880;SDS011;4979;51.014;6.678;2023-05-20T09:30:25;6.53;;;3.50;;
9880;SDS011;4979;51.014;6.678;2023-05-20T09:32:55;3.78;;;3.22;;
9880;SDS011;4979;51.014;6.678;2023-05-20T09:35:22;4.22;;;3.40;;
9880;SDS011;4979;51.014;6.678;2023-05-20T09:37:52;8.70;;;3.80;;
9880;SDS011;4979;51.014;6.678;2023-05-20T09:40:23;3.67;;;3.35;;
9880;SDS011;4979;51.014;6.678;2023-05-20T09:45:20;4.70;;;3.40;;
9880;SDS011;4979;51.014;6.678;2023-05-20T09:47:47;6.18;;;3.63;;
9880;SDS011;4979;51.014;6.678;2023-05-20T09:50:15;6.82;;;3.88;;
9880;SDS011;4979;51.014;6.678;2023-05-20T09:52:46;6.18;;;4.10;;
9880;SDS011;4979;51.014;6.678;2023-05-20T09:55:17;4.18;;;3.33;;
9880;SDS011;4979;51.014;6.678;2023-05-20T09:57:48;3.83;;;3.38;;
9880;SDS011;4979;51.014;6.678;2023-05-20T10:00:19;3.97;;;3.53;;
9880;SDS011;4979;51.014;6.678;2023-05-20T10:02:51;5.57;;;3.75;;
9880;SDS011;4979;51.014;6.678;2023-05-20T10:05:26;6.28;;;3.40;;
9880;SDS011;4979;51.014;6.678;2023-05-20T10:11:11;7.95;;;4.00;;
9880;SDS011;4979;51.014;6.678;2023-05-20T10:14:06;5.05;;;3.83;;
9880;SDS011;4979;51.014;6.678;2023-05-20T10:16:41;2.75;;;2.55;;
9880;SDS011;4979;51.014;6.678;2023-05-20T10:22:03;5.15;;;3.50;;
9880;SDS011;4979;51.014;6.678;2023-05-20T10:24:32;5.03;;;3.65;;
9880;SDS011;4979;51.014;6.678;2023-05-20T10:27:00;4.20;;;3.17;;
9880;SDS011;4979;51.014;6.678;2023-05-20T10:29:27;4.30;;;3.90;;
9880;SDS011;4979;51.014;6.678;2023-05-20T10:31:53;6.50;;;3.58;;
9880;SDS011;4979;51.014;6.678;2023-05-20T10:34:20;5.00;;;3.58;;
9880;SDS011;4979;51.014;6.678;2023-05-20T10:39:18;4.25;;;3.22;;
9880;SDS011;4979;51.014;6.678;2023-05-20T10:41:49;5.32;;;4.07;;
9880;SDS011;4979;51.014;6.678;2023-05-20T10:44:15;4.85;;;3.75;;
9880;SDS011;4979;51.014;6.678;2023-05-20T10:46:40;3.55;;;3.15;;
9880;SDS011;4979;51.014;6.678;2023-05-20T10:49:16;6.45;;;4.03;;
9880;SDS011;4979;51.014;6.678;2023-05-20T10:51:43;5.68;;;3.70;;
9880;SDS011;4979;51.014;6.678;2023-05-20T10:54:09;3.88;;;3.47;;
9880;SDS011;4979;51.014;6.678;2023-05-20T10:56:35;4.60;;;3.78;;
9880;SDS011;4979;51.014;6.678;2023-05-20T10:59:01;4.80;;;4.30;;
9880;SDS011;4979;51.014;6.678;2023-05-20T11:01:26;6.18;;;3.92;;
9880;SDS011;4979;51.014;6.678;2023-05-20T11:03:55;5.50;;;4.43;;
9880;SDS011;4979;51.014;6.678;2023-05-20T11:06:24;5.63;;;4.03;;
9880;SDS011;4979;51.014;6.678;2023-05-20T11:08:52;4.53;;;3.33;;
9880;SDS011;4979;51.014;6.678;2023-05-20T11:11:18;4.20;;;3.75;;
9880;SDS011;4979;51.014;6.678;2023-05-20T11:13:49;5.05;;;3.97;;
9880;SDS011;4979;51.014;6.678;2023-05-20T11:16:15;4.05;;;3.65;;
9880;SDS011;4979;51.014;6.678;2023-05-20T11:18:41;4.75;;;4.13;;
9880;SDS011;4979;51.014;6.678;2023-05-20T11:21:06;7.88;;;4.07;;
9880;SDS011;4979;51.014;6.678;2023-05-20T11:23:32;4.80;;;4.07;;
9880;SDS011;4979;51.014;6.678;2023-05-20T11:25:58;4.40;;;3.67;;
9880;SDS011;4979;51.014;6.678;2023-05-20T11:28:23;6.82;;;4.40;;
9880;SDS011;4979;51.014;6.678;2023-05-20T11:30:50;4.30;;;3.80;;
9880;SDS011;4979;51.014;6.678;2023-05-20T11:33:16;4.32;;;3.63;;
9880;SDS011;4979;51.014;6.678;2023-05-20T11:35:49;8.30;;;3.90;;
9880;SDS011;4979;51.014;6.678;2023-05-20T11:38:17;3.92;;;3.50;;
9880;SDS011;4979;51.014;6.678;2023-05-20T11:40:53;8.38;;;4.60;;
9880;SDS011;4979;51.014;6.678;2023-05-20T11:43:20;6.47;;;4.03;;
9880;SDS011;4979;51.014;6.678;2023-05-20T11:45:47;7.18;;;3.95;;
9880;SDS011;4979;51.014;6.678;2023-05-20T11:48:23;8.68;;;4.53;;
9880;SDS011;4979;51.014;6.678;2023-05-20T11:50:49;6.32;;;4.28;;
9880;SDS011;4979;51.014;6.678;2023-05-20T11:53:19;7.38;;;4.63;;
9880;SDS011;4979;51.014;6.678;2023-05-20T11:58:22;5.22;;;4.00;;
9880;SDS011;4979;51.014;6.678;2023-05-20T12:00:53;5.47;;;4.68;;
9880;SDS011;4979;51.014;6.678;2023-05-20T12:03:19;9.25;;;5.40;;
9880;SDS011;4979;51.014;6.678;2023-05-20T12:05:45;4.95;;;4.35;;
9880;SDS011;4979;51.014;6.678;2023-05-20T12:08:15;5.40;;;4.10;;
9880;SDS011;4979;51.014;6.678;2023-05-20T12:10:41;6.30;;;5.20;;
9880;SDS011;4979;51.014;6.678;2023-05-20T12:13:06;5.78;;;4.68;;
9880;SDS011;4979;51.014;6.678;2023-05-20T12:15:33;5.20;;;4.70;;
9880;SDS011;4979;51.014;6.678;2023-05-20T12:18:04;7.95;;;5.20;;
9880;SDS011;4979;51.014;6.678;2023-05-20T12:20:30;8.13;;;4.80;;
9880;SDS011;4979;51.014;6.678;2023-05-20T12:22:58;4.97;;;4.47;;
9880;SDS011;4979;51.014;6.678;2023-05-20T12:25:24;5.78;;;4.80;;
9880;SDS011;4979;51.014;6.678;2023-05-20T12:27:50;6.25;;;4.85;;
9880;SDS011;4979;51.014;6.678;2023-05-20T12:30:17;7.22;;;5.18;;
9880;SDS011;4979;51.014;6.678;2023-05-20T12:32:46;7.45;;;4.82;;
9880;SDS011;4979;51.014;6.678;2023-05-20T12:35:13;6.60;;;4.88;;
9880;SDS011;4979;51.014;6.678;2023-05-20T12:37:39;4.38;;;3.85;;
9880;SDS011;4979;51.014;6.678;2023-05-20T12:40:06;7.65;;;5.43;;
9880;SDS011;4979;51.014;6.678;2023-05-20T12:42:36;8.75;;;4.78;;
9880;SDS011;4979;51.014;6.678;2023-05-20T12:45:03;5.13;;;4.63;;
9880;SDS011;4979;51.014;6.678;2023-05-20T12:47:33;7.22;;;5.18;;
9880;SDS011;4979;51.014;6.678;2023-05-20T12:49:59;5.53;;;4.90;;
9880;SDS011;4979;51.014;6.678;2023-05-20T12:52:26;6.05;;;4.57;;
9880;SDS011;4979;51.014;6.678;2023-05-20T12:54:55;5.68;;;4.22;;
9880;SDS011;4979;51.014;6.678;2023-05-20T12:57:21;5.85;;;4.70;;
9880;SDS011;4979;51.014;6.678;2023-05-20T12:59:48;6.97;;;5.22;;
9880;SDS011;4979;51.014;6.678;2023-05-20T13:02:15;5.60;;;4.53;;
9880;SDS011;4979;51.014;6.678;2023-05-20T13:04:41;8.25;;;4.10;;
9880;SDS011;4979;51.014;6.678;2023-05-20T13:07:07;5.57;;;4.30;;
9880;SDS011;4979;51.014;6.678;2023-05-20T13:09:32;5.18;;;4.68;;
9880;SDS011;4979;51.014;6.678;2023-05-20T13:11:59;4.82;;;4.43;;
9880;SDS011;4979;51.014;6.678;2023-05-20T13:14:25;5.38;;;3.95;;
9880;SDS011;4979;51.014;6.678;2023-05-20T13:16:52;8.68;;;4.80;;
9880;SDS011;4979;51.014;6.678;2023-05-20T13:19:19;5.22;;;4.50;;
9880;SDS011;4979;51.014;6.678;2023-05-20T13:21:46;5.53;;;4.63;;
9880;SDS011;4979;51.014;6.678;2023-05-20T13:24:13;5.00;;;4.50;;
9880;SDS011;4979;51.014;6.678;2023-05-20T13:26:39;4.32;;;3.92;;
9880;SDS011;4979;51.014;6.678;2023-05-20T13:29:05;4.57;;;3.83;;
9880;SDS011;4979;51.014;6.678;2023-05-20T13:31:31;4.82;;;4.07;;
9880;SDS011;4979;51.014;6.678;2023-05-20T13:33:57;4.85;;;4.20;;
9880;SDS011;4979;51.014;6.678;2023-05-20T13:36:24;5.05;;;4.20;;
9880;SDS011;4979;51.014;6.678;2023-05-20T13:38:50;4.57;;;3.90;;
9880;SDS011;4979;51.014;6.678;2023-05-20T13:41:16;4.85;;;4.18;;
9880;SDS011;4979;51.014;6.678;2023-05-20T13:43:42;8.48;;;4.28;;
9880;SDS011;4979;51.014;6.678;2023-05-20T13:46:07;6.45;;;4.05;;
9880;SDS011;4979;51.014;6.678;2023-05-20T13:48:33;5.18;;;3.80;;
9880;SDS011;4979;51.014;6.678;2023-05-20T13:50:59;4.30;;;3.63;;
9880;SDS011;4979;51.014;6.678;2023-05-20T13:53:25;12.82;;;3.67;;
9880;SDS011;4979;51.014;6.678;2023-05-20T13:55:51;5.63;;;4.07;;
9880;SDS011;4979;51.014;6.678;2023-05-20T13:58:17;4.38;;;3.58;;
9880;SDS011;4979;51.014;6.678;2023-05-20T14:00:43;3.58;;;3.25;;
9880;SDS011;4979;51.014;6.678;2023-05-20T14:03:08;4.88;;;3.85;;
9880;SDS011;4979;51.014;6.678;2023-05-20T14:05:34;4.30;;;3.90;;
9880;SDS011;4979;51.014;6.678;2023-05-20T14:08:00;3.60;;;3.30;;
9880;SDS011;4979;51.014;6.678;2023-05-20T14:10:26;3.97;;;3.58;;
9880;SDS011;4979;51.014;6.678;2023-05-20T14:12:52;9.55;;;4.15;;
9880;SDS011;4979;51.014;6.678;2023-05-20T14:15:19;5.78;;;3.58;;
9880;SDS011;4979;51.014;6.678;2023-05-20T14:17:44;5.30;;;3.40;;
9880;SDS011;4979;51.014;6.678;2023-05-20T14:20:11;3.58;;;3.28;;
9880;SDS011;4979;51.014;6.678;2023-05-20T14:22:36;4.25;;;2.78;;
9880;SDS011;4979;51.014;6.678;2023-05-20T14:25:02;4.57;;;3.53;;
9880;SDS011;4979;51.014;6.678;2023-05-20T14:27:28;4.15;;;2.90;;
9880;SDS011;4979;51.014;6.678;2023-05-20T14:29:54;5.80;;;3.47;;
9880;SDS011;4979;51.014;6.678;2023-05-20T14:32:20;8.68;;;3.63;;
9880;SDS011;4979;51.014;6.678;2023-05-20T14:34:45;4.10;;;3.20;;
9880;SDS011;4979;51.014;6.678;2023-05-20T14:37:11;4.72;;;3.55;;
9880;SDS011;4979;51.014;6.678;2023-05-20T14:39:37;4.43;;;3.55;;
9880;SDS011;4979;51.014;6.678;2023-05-20T14:42:03;4.70;;;3.72;;
9880;SDS011;4979;51.014;6.678;2023-05-20T14:44:29;3.80;;;3.40;;
9880;SDS011;4979;51.014;6.678;2023-05-20T14:46:55;3.80;;;3.35;;
9880;SDS011;4979;51.014;6.678;2023-05-20T14:49:20;5.78;;;3.67;;
9880;SDS011;4979;51.014;6.678;2023-05-20T14:51:46;5.28;;;4.45;;
9880;SDS011;4979;51.014;6.678;2023-05-20T14:54:12;7.38;;;3.80;;
9880;SDS011;4979;51.014;6.678;2023-05-20T14:56:39;5.20;;;3.60;;
9880;SDS011;4979;51.014;6.678;2023-05-20T14:59:05;7.10;;;3.40;;
9880;SDS011;4979;51.014;6.678;2023-05-20T15:01:31;3.65;;;3.30;;
9880;SDS011;4979;51.014;6.678;2023-05-20T15:03:57;3.97;;;3.55;;
9880;SDS011;4979;51.014;6.678;2023-05-20T15:06:23;3.78;;;3.47;;
9880;SDS011;4979;51.014;6.678;2023-05-20T15:08:49;3.92;;;3.33;;
9880;SDS011;4979;51.014;6.678;2023-05-20T15:11:14;3.80;;;3.33;;
9880;SDS011;4979;51.014;6.678;2023-05-20T15:13:40;4.05;;;3.42;;
9880;SDS011;4979;51.014;6.678;2023-05-20T15:16:06;4.40;;;3.78;;
9880;SDS011;4979;51.014;6.678;2023-05-20T15:18:31;4.10;;;3.20;;
9880;SDS011;4979;51.014;6.678;2023-05-20T15:20:57;5.07;;;3.85;;
9880;SDS011;4979;51.014;6.678;2023-05-20T15:23:26;3.10;;;2.80;;
9880;SDS011;4979;51.014;6.678;2023-05-20T15:25:51;4.95;;;3.80;;